sensor_id;sensor_type;location;lat;lon;timestamp;P1;durP1;ratioP1;P2;durP2;ratioP2
10082;SDS011;5080;48.528;8.078;2023-01-06T00:01:23;0.70;;;0.70;;
10082;SDS011;5080;48.528;8.078;2023-01-06T00:03:52;0.80;;;0.80;;
10082;SDS011;5080;48.528;8.078;2023-01-06T00:06:22;1.00;;;1.00;;
10082;SDS011;5080;48.528;8.078;2023-01-06T00:08:51;0.93;;;0.93;;
10082;SDS011;5080;48.528;8.078;2023-01-06T00:11:18;0.90;;;0.90;;
10082;SDS011;5080;48.528;8.078;2023-01-06T00:13:45;0.70;;;0.70;;
10082;SDS011;5080;48.528;8.078;2023-01-06T00:16:13;0.73;;;0.73;;
10082;SDS011;5080;48.528;8.078;2023-01-06T00:18:41;0.70;;;0.70;;
10082;SDS011;5080;48.528;8.078;2023-01-06T00:21:10;0.80;;;0.80;;
10082;SDS011;5080;48.528;8.078;2023-01-06T00:23:38;1.07;;;0.60;;
10082;SDS011;5080;48.528;8.078;2023-01-06T00:26:06;0.90;;;0.90;;
10082;SDS011;5080;48.528;8.078;2023-01-06T00:28:34;0.70;;;0.70;;
10082;SDS011;5080;48.528;8.078;2023-01-06T00:31:04;0.83;;;0.83;;
10082;SDS011;5080;48.528;8.078;2023-01-06T00:33:32;0.68;;;0.68;;
10082;SDS011;5080;48.528;8.078;2023-01-06T00:35:59;0.60;;;0.60;;
10082;SDS011;5080;48.528;8.078;2023-01-06T00:38:27;0.87;;;0.87;;
10082;SDS011;5080;48.528;8.078;2023-01-06T00:40:55;1.00;;;1.00;;
10082;SDS011;5080;48.528;8.078;2023-01-06T00:43:22;1.00;;;1.00;;
10082;SDS011;5080;48.528;8.078;2023-01-06T00:45:49;0.80;;;0.80;;
10082;SDS011;5080;48.528;8.078;2023-01-06T00:48:15;0.83;;;0.83;;
10082;SDS011;5080;48.528;8.078;2023-01-06T00:50:42;0.90;;;0.90;;
10082;SDS011;5080;48.528;8.078;2023-01-06T00:53:09;0.80;;;0.80;;
10082;SDS011;5080;48.528;8.078;2023-01-06T00:55:38;0.80;;;0.80;;
10082;SDS011;5080;48.528;8.078;2023-01-06T00:58:04;0.95;;;0.95;;
10082;SDS011;5080;48.528;8.078;2023-01-06T01:00:31;0.80;;;0.80;;
10082;SDS011;5080;48.528;8.078;2023-01-06T01:02:58;0.90;;;0.90;;
10082;SDS011;5080;48.528;8.078;2023-01-06T01:05:25;0.80;;;0.80;;
10082;SDS011;5080;48.528;8.078;2023-01-06T01:07:52;0.60;;;0.60;;
10082;SDS011;5080;48.528;8.078;2023-01-06T01:10:18;1.00;;;0.90;;
10082;SDS011;5080;48.528;8.078;2023-01-06T01:12:47;0.53;;;0.53;;
10082;SDS011;5080;48.528;8.078;2023-01-06T01:15:14;0.80;;;0.80;;
10082;SDS011;5080;48.528;8.078;2023-01-06T01:17:41;0.70;;;0.70;;
10082;SDS011;5080;48.528;8.078;2023-01-06T01:20:08;0.80;;;0.80;;
10082;SDS011;5080;48.528;8.078;2023-01-06T01:22:35;1.07;;;0.90;;
10082;SDS011;5080;48.528;8.078;2023-01-06T01:25:02;0.80;;;0.80;;
10082;SDS011;5080;48.528;8.078;2023-01-06T01:27:30;0.70;;;0.70;;
10082;SDS011;5080;48.528;8.078;2023-01-06T01:29:59;0.63;;;0.63;;
10082;SDS011;5080;48.528;8.078;2023-01-06T01:32:25;0.87;;;0.87;;
10082;SDS011;5080;48.528;8.078;2023-01-06T01:34:52;0.70;;;0.70;;
10082;SDS011;5080;48.528;8.078;2023-01-06T01:37:19;0.80;;;0.80;;
10082;SDS011;5080;48.528;8.078;2023-01-06T01:39:46;0.87;;;0.87;;
10082;SDS011;5080;48.528;8.078;2023-01-06T01:42:15;0.70;;;0.70;;
10082;SDS011;5080;48.528;8.078;2023-01-06T01:44:58;0.90;;;0.90;;
10082;SDS011;5080;48.528;8.078;2023-01-06T01:47:28;0.70;;;0.70;;
10082;SDS011;5080;48.528;8.078;2023-01-06T01:50:12;0.60;;;0.60;;
10082;SDS011;5080;48.528;8.078;2023-01-06T01:52:45;0.60;;;0.60;;
10082;SDS011;5080;48.528;8.078;2023-01-06T01:55:14;0.50;;;0.50;;
10082;SDS011;5080;48.528;8.078;2023-01-06T01:57:45;0.68;;;0.68;;
10082;SDS011;5080;48.528;8.078;2023-01-06T02:00:17;0.83;;;0.83;;
10082;SDS011;5080;48.528;8.078;2023-01-06T02:02:44;0.60;;;0.60;;
10082;SDS011;5080;48.528;8.078;2023-01-06T02:05:12;0.60;;;0.60;;
10082;SDS011;5080;48.528;8.078;2023-01-06T02:07:43;0.60;;;0.60;;
10082;SDS011;5080;48.528;8.078;2023-01-06T02:10:11;0.70;;;0.70;;
10082;SDS011;5080;48.528;8.078;2023-01-06T02:12:40;0.70;;;0.70;;
10082;SDS011;5080;48.528;8.078;2023-01-06T02:15:15;0.50;;;0.50;;
10082;SDS011;5080;48.528;8.078;2023-01-06T02:17:49;0.40;;;0.40;;
10082;SDS011;5080;48.528;8.078;2023-01-06T02:20:34;0.57;;;0.57;;
10082;SDS011;5080;48.528;8.078;2023-01-06T02:23:20;0.77;;;0.77;;
10082;SDS011;5080;48.528;8.078;2023-01-06T02:32:44;0.60;;;0.60;;
10082;SDS011;5080;48.528;8.078;2023-01-06T02:35:23;0.43;;;0.43;;
10082;SDS011;5080;48.528;8.078;2023-01-06T02:38:07;0.50;;;0.50;;
10082;SDS011;5080;48.528;8.078;2023-01-06T02:40:45;0.60;;;0.60;;
10082;SDS011;5080;48.528;8.078;2023-01-06T02:43:21;0.73;;;0.70;;
10082;SDS011;5080;48.528;8.078;2023-01-06T02:45:55;0.73;;;0.73;;
10082;SDS011;5080;48.528;8.078;2023-01-06T02:48:36;0.80;;;0.80;;
10082;SDS011;5080;48.528;8.078;2023-01-06T02:51:12;1.17;;;0.80;;
10082;SDS011;5080;48.528;8.078;2023-01-06T02:53:46;0.90;;;0.90;;
10082;SDS011;5080;48.528;8.078;2023-01-06T02:56:21;1.07;;;1.00;;
10082;SDS011;5080;48.528;8.078;2023-01-06T02:58:52;1.20;;;1.10;;
10082;SDS011;5080;48.528;8.078;2023-01-06T03:01:25;1.00;;;1.00;;
10082;SDS011;5080;48.528;8.078;2023-01-06T03:03:58;1.30;;;1.30;;
10082;SDS011;5080;48.528;8.078;2023-01-06T03:06:29;1.00;;;1.00;;
10082;SDS011;5080;48.528;8.078;2023-01-06T03:08:57;1.40;;;1.30;;
10082;SDS011;5080;48.528;8.078;2023-01-06T03:11:26;1.10;;;1.10;;
10082;SDS011;5080;48.528;8.078;2023-01-06T03:13:57;1.50;;;1.40;;
10082;SDS011;5080;48.528;8.078;2023-01-06T03:16:28;1.20;;;1.20;;
10082;SDS011;5080;48.528;8.078;2023-01-06T03:18:55;2.20;;;1.70;;
10082;SDS011;5080;48.528;8.078;2023-01-06T03:21:24;1.40;;;1.40;;
10082;SDS011;5080;48.528;8.078;2023-01-06T03:23:57;1.27;;;1.27;;
10082;SDS011;5080;48.528;8.078;2023-01-06T03:26:24;0.90;;;0.90;;
10082;SDS011;5080;48.528;8.078;2023-01-06T03:28:51;1.13;;;1.13;;
10082;SDS011;5080;48.528;8.078;2023-01-06T03:31:19;1.17;;;1.13;;
10082;SDS011;5080;48.528;8.078;2023-01-06T03:33:53;1.13;;;1.13;;
10082;SDS011;5080;48.528;8.078;2023-01-06T03:36:29;1.00;;;1.00;;
10082;SDS011;5080;48.528;8.078;2023-01-06T03:39:04;1.20;;;1.10;;
10082;SDS011;5080;48.528;8.078;2023-01-06T03:41:39;0.90;;;0.90;;
10082;SDS011;5080;48.528;8.078;2023-01-06T03:44:28;0.87;;;0.87;;
10082;SDS011;5080;48.528;8.078;2023-01-06T03:47:04;0.60;;;0.60;;
10082;SDS011;5080;48.528;8.078;2023-01-06T03:49:41;0.80;;;0.80;;
10082;SDS011;5080;48.528;8.078;2023-01-06T03:52:18;0.82;;;0.82;;
10082;SDS011;5080;48.528;8.078;2023-01-06T03:54:51;0.70;;;0.70;;
10082;SDS011;5080;48.528;8.078;2023-01-06T03:57:25;0.60;;;0.60;;
10082;SDS011;5080;48.528;8.078;2023-01-06T03:59:57;0.57;;;0.57;;
10082;SDS011;5080;48.528;8.078;2023-01-06T04:02:28;0.60;;;0.60;;
10082;SDS011;5080;48.528;8.078;2023-01-06T04:05:00;0.80;;;0.80;;
10082;SDS011;5080;48.528;8.078;2023-01-06T04:07:31;0.70;;;0.70;;
10082;SDS011;5080;48.528;8.078;2023-01-06T04:09:58;0.73;;;0.73;;
10082;SDS011;5080;48.528;8.078;2023-01-06T04:12:24;0.80;;;0.80;;
10082;SDS011;5080;48.528;8.078;2023-01-06T04:15:06;0.60;;;0.60;;
10082;SDS011;5080;48.528;8.078;2023-01-06T04:17:35;1.20;;;0.93;;
10082;SDS011;5080;48.528;8.078;2023-01-06T04:20:02;0.80;;;0.80;;
10082;SDS011;5080;48.528;8.078;2023-01-06T04:22:31;0.63;;;0.63;;
10082;SDS011;5080;48.528;8.078;2023-01-06T04:24:57;0.75;;;0.75;;
10082;SDS011;5080;48.528;8.078;2023-01-06T04:27:24;0.77;;;0.77;;
10082;SDS011;5080;48.528;8.078;2023-01-06T04:29:51;0.60;;;0.60;;
10082;SDS011;5080;48.528;8.078;2023-01-06T04:32:18;0.77;;;0.77;;
10082;SDS011;5080;48.528;8.078;2023-01-06T04:34:45;0.60;;;0.60;;
10082;SDS011;5080;48.528;8.078;2023-01-06T04:37:12;0.70;;;0.70;;
10082;SDS011;5080;48.528;8.078;2023-01-06T04:39:40;0.80;;;0.80;;
10082;SDS011;5080;48.528;8.078;2023-01-06T04:42:07;0.60;;;0.60;;
10082;SDS011;5080;48.528;8.078;2023-01-06T04:44:34;0.60;;;0.60;;
10082;SDS011;5080;48.528;8.078;2023-01-06T04:47:01;0.63;;;0.63;;
10082;SDS011;5080;48.528;8.078;2023-01-06T04:49:28;0.77;;;0.77;;
10082;SDS011;5080;48.528;8.078;2023-01-06T04:51:54;0.77;;;0.77;;
10082;SDS011;5080;48.528;8.078;2023-01-06T04:54:21;0.70;;;0.70;;
10082;SDS011;5080;48.528;8.078;2023-01-06T04:56:49;0.80;;;0.80;;
10082;SDS011;5080;48.528;8.078;2023-01-06T04:59:16;0.90;;;0.90;;
10082;SDS011;5080;48.528;8.078;2023-01-06T05:01:43;0.90;;;0.90;;
10082;SDS011;5080;48.528;8.078;2023-01-06T05:04:10;0.50;;;0.50;;
10082;SDS011;5080;48.528;8.078;2023-01-06T05:06:37;0.80;;;0.80;;
10082;SDS011;5080;48.528;8.078;2023-01-06T05:09:04;0.90;;;0.90;;
10082;SDS011;5080;48.528;8.078;2023-01-06T05:11:31;0.80;;;0.80;;
10082;SDS011;5080;48.528;8.078;2023-01-06T05:14:00;0.90;;;0.85;;
10082;SDS011;5080;48.528;8.078;2023-01-06T05:16:27;0.70;;;0.70;;
10082;SDS011;5080;48.528;8.078;2023-01-06T05:18:55;0.73;;;0.73;;
10082;SDS011;5080;48.528;8.078;2023-01-06T05:21:22;0.73;;;0.73;;
10082;SDS011;5080;48.528;8.078;2023-01-06T05:23:51;1.00;;;1.00;;
10082;SDS011;5080;48.528;8.078;2023-01-06T05:26:19;0.77;;;0.77;;
10082;SDS011;5080;48.528;8.078;2023-01-06T05:28:47;0.60;;;0.60;;
10082;SDS011;5080;48.528;8.078;2023-01-06T05:31:16;0.70;;;0.70;;
10082;SDS011;5080;48.528;8.078;2023-01-06T05:33:43;0.70;;;0.70;;
10082;SDS011;5080;48.528;8.078;2023-01-06T05:36:10;0.80;;;0.80;;
10082;SDS011;5080;48.528;8.078;2023-01-06T05:38:39;0.70;;;0.70;;
10082;SDS011;5080;48.528;8.078;2023-01-06T05:41:07;0.83;;;0.83;;
10082;SDS011;5080;48.528;8.078;2023-01-06T05:43:34;0.60;;;0.60;;
10082;SDS011;5080;48.528;8.078;2023-01-06T05:46:05;0.80;;;0.80;;
10082;SDS011;5080;48.528;8.078;2023-01-06T05:48:34;0.70;;;0.70;;
10082;SDS011;5080;48.528;8.078;2023-01-06T05:51:02;0.77;;;0.77;;
10082;SDS011;5080;48.528;8.078;2023-01-06T05:53:30;1.27;;;0.67;;
10082;SDS011;5080;48.528;8.078;2023-01-06T05:55:58;0.60;;;0.60;;
10082;SDS011;5080;48.528;8.078;2023-01-06T05:58:25;0.60;;;0.60;;
10082;SDS011;5080;48.528;8.078;2023-01-06T06:00:53;0.50;;;0.50;;
10082;SDS011;5080;48.528;8.078;2023-01-06T06:03:19;0.70;;;0.70;;
10082;SDS011;5080;48.528;8.078;2023-01-06T06:05:48;0.33;;;0.33;;
10082;SDS011;5080;48.528;8.078;2023-01-06T06:08:15;0.60;;;0.60;;
10082;SDS011;5080;48.528;8.078;2023-01-06T06:10:42;0.70;;;0.70;;
10082;SDS011;5080;48.528;8.078;2023-01-06T06:13:08;0.80;;;0.80;;
10082;SDS011;5080;48.528;8.078;2023-01-06T06:15:35;0.70;;;0.70;;
10082;SDS011;5080;48.528;8.078;2023-01-06T06:18:02;0.57;;;0.57;;
10082;SDS011;5080;48.528;8.078;2023-01-06T06:20:29;0.50;;;0.50;;
10082;SDS011;5080;48.528;8.078;2023-01-06T06:22:57;0.57;;;0.57;;
10082;SDS011;5080;48.528;8.078;2023-01-06T06:25:24;0.40;;;0.40;;
10082;SDS011;5080;48.528;8.078;2023-01-06T06:27:55;0.30;;;0.30;;
10082;SDS011;5080;48.528;8.078;2023-01-06T06:30:23;0.30;;;0.30;;
10082;SDS011;5080;48.528;8.078;2023-01-06T06:32:50;0.47;;;0.47;;
10082;SDS011;5080;48.528;8.078;2023-01-06T06:35:17;0.40;;;0.40;;
10082;SDS011;5080;48.528;8.078;2023-01-06T06:37:43;0.40;;;0.40;;
10082;SDS011;5080;48.528;8.078;2023-01-06T06:40:12;0.50;;;0.50;;
10082;SDS011;5080;48.528;8.078;2023-01-06T06:42:39;0.30;;;0.30;;
10082;SDS011;5080;48.528;8.078;2023-01-06T06:45:06;0.40;;;0.40;;
10082;SDS011;5080;48.528;8.078;2023-01-06T06:47:33;0.30;;;0.30;;
10082;SDS011;5080;48.528;8.078;2023-01-06T06:50:00;0.30;;;0.30;;
10082;SDS011;5080;48.528;8.078;2023-01-06T06:52:27;0.30;;;0.30;;
10082;SDS011;5080;48.528;8.078;2023-01-06T06:54:54;0.40;;;0.40;;
10082;SDS011;5080;48.528;8.078;2023-01-06T06:57:22;0.20;;;0.20;;
10082;SDS011;5080;48.528;8.078;2023-01-06T06:59:49;0.37;;;0.37;;
10082;SDS011;5080;48.528;8.078;2023-01-06T07:02:16;0.30;;;0.30;;
10082;SDS011;5080;48.528;8.078;2023-01-06T07:04:42;0.40;;;0.40;;
10082;SDS011;5080;48.528;8.078;2023-01-06T07:07:09;0.37;;;0.37;;
10082;SDS011;5080;48.528;8.078;2023-01-06T07:09:36;0.30;;;0.30;;
10082;SDS011;5080;48.528;8.078;2023-01-06T07:12:03;0.57;;;0.57;;
10082;SDS011;5080;48.528;8.078;2023-01-06T07:14:32;0.53;;;0.53;;
10082;SDS011;5080;48.528;8.078;2023-01-06T07:16:59;0.40;;;0.40;;
10082;SDS011;5080;48.528;8.078;2023-01-06T07:19:26;0.30;;;0.30;;
10082;SDS011;5080;48.528;8.078;2023-01-06T07:21:53;0.50;;;0.50;;
10082;SDS011;5080;48.528;8.078;2023-01-06T07:24:20;0.50;;;0.50;;
10082;SDS011;5080;48.528;8.078;2023-01-06T07:26:47;0.60;;;0.60;;
10082;SDS011;5080;48.528;8.078;2023-01-06T07:29:14;0.50;;;0.50;;
10082;SDS011;5080;48.528;8.078;2023-01-06T07:31:42;0.40;;;0.40;;
10082;SDS011;5080;48.528;8.078;2023-01-06T07:34:09;0.40;;;0.40;;
10082;SDS011;5080;48.528;8.078;2023-01-06T07:36:36;0.70;;;0.70;;
10082;SDS011;5080;48.528;8.078;2023-01-06T07:39:03;0.60;;;0.60;;
10082;SDS011;5080;48.528;8.078;2023-01-06T07:41:30;0.60;;;0.60;;
10082;SDS011;5080;48.528;8.078;2023-01-06T07:43:57;0.50;;;0.50;;
10082;SDS011;5080;48.528;8.078;2023-01-06T07:46:24;0.60;;;0.60;;
10082;SDS011;5080;48.528;8.078;2023-01-06T07:48:52;0.60;;;0.60;;
10082;SDS011;5080;48.528;8.078;2023-01-06T07:51:19;0.40;;;0.40;;
10082;SDS011;5080;48.528;8.078;2023-01-06T07:53:46;0.50;;;0.50;;
10082;SDS011;5080;48.528;8.078;2023-01-06T07:56:13;0.50;;;0.50;;
10082;SDS011;5080;48.528;8.078;2023-01-06T07:58:40;0.30;;;0.30;;
10082;SDS011;5080;48.528;8.078;2023-01-06T08:01:07;0.40;;;0.40;;
10082;SDS011;5080;48.528;8.078;2023-01-06T08:03:34;0.50;;;0.50;;
10082;SDS011;5080;48.528;8.078;2023-01-06T08:06:05;0.50;;;0.50;;
10082;SDS011;5080;48.528;8.078;2023-01-06T08:08:34;0.50;;;0.50;;
10082;SDS011;5080;48.528;8.078;2023-01-06T08:11:03;0.73;;;0.73;;
10082;SDS011;5080;48.528;8.078;2023-01-06T08:13:30;1.00;;;1.00;;
10082;SDS011;5080;48.528;8.078;2023-01-06T08:15:58;0.90;;;0.90;;
10082;SDS011;5080;48.528;8.078;2023-01-06T08:18:26;0.77;;;0.77;;
10082;SDS011;5080;48.528;8.078;2023-01-06T08:20:58;0.80;;;0.80;;
10082;SDS011;5080;48.528;8.078;2023-01-06T08:23:27;0.50;;;0.50;;
10082;SDS011;5080;48.528;8.078;2023-01-06T08:26:00;0.50;;;0.50;;
10082;SDS011;5080;48.528;8.078;2023-01-06T08:28:27;0.50;;;0.50;;
10082;SDS011;5080;48.528;8.078;2023-01-06T08:30:54;0.52;;;0.52;;
10082;SDS011;5080;48.528;8.078;2023-01-06T08:33:21;1.10;;;0.67;;
10082;SDS011;5080;48.528;8.078;2023-01-06T08:35:50;0.70;;;0.70;;
10082;SDS011;5080;48.528;8.078;2023-01-06T08:38:17;0.50;;;0.50;;
10082;SDS011;5080;48.528;8.078;2023-01-06T08:40:45;0.47;;;0.47;;
10082;SDS011;5080;48.528;8.078;2023-01-06T08:43:11;0.47;;;0.47;;
10082;SDS011;5080;48.528;8.078;2023-01-06T08:45:38;0.60;;;0.60;;
10082;SDS011;5080;48.528;8.078;2023-01-06T08:48:05;0.60;;;0.60;;
10082;SDS011;5080;48.528;8.078;2023-01-06T08:50:32;1.03;;;0.57;;
10082;SDS011;5080;48.528;8.078;2023-01-06T08:52:59;0.70;;;0.70;;
10082;SDS011;5080;48.528;8.078;2023-01-06T08:55:26;0.57;;;0.57;;
10082;SDS011;5080;48.528;8.078;2023-01-06T08:57:54;0.30;;;0.30;;
10082;SDS011;5080;48.528;8.078;2023-01-06T09:00:21;0.60;;;0.60;;
10082;SDS011;5080;48.528;8.078;2023-01-06T09:02:48;0.80;;;0.80;;
10082;SDS011;5080;48.528;8.078;2023-01-06T09:05:15;0.50;;;0.50;;
10082;SDS011;5080;48.528;8.078;2023-01-06T09:07:42;0.40;;;0.40;;
10082;SDS011;5080;48.528;8.078;2023-01-06T09:10:08;0.50;;;0.50;;
10082;SDS011;5080;48.528;8.078;2023-01-06T09:12:36;0.40;;;0.40;;
10082;SDS011;5080;48.528;8.078;2023-01-06T09:15:05;0.30;;;0.30;;
10082;SDS011;5080;48.528;8.078;2023-01-06T09:17:32;0.40;;;0.40;;
10082;SDS011;5080;48.528;8.078;2023-01-06T09:19:59;0.60;;;0.60;;
10082;SDS011;5080;48.528;8.078;2023-01-06T09:22:26;0.50;;;0.50;;
10082;SDS011;5080;48.528;8.078;2023-01-06T09:24:53;0.53;;;0.53;;
10082;SDS011;5080;48.528;8.078;2023-01-06T09:27:20;0.40;;;0.40;;
10082;SDS011;5080;48.528;8.078;2023-01-06T09:29:47;0.30;;;0.30;;
10082;SDS011;5080;48.528;8.078;2023-01-06T09:32:15;0.40;;;0.40;;
10082;SDS011;5080;48.528;8.078;2023-01-06T09:34:42;0.40;;;0.40;;
10082;SDS011;5080;48.528;8.078;2023-01-06T09:37:09;0.50;;;0.50;;
10082;SDS011;5080;48.528;8.078;2023-01-06T09:39:36;0.63;;;0.63;;
10082;SDS011;5080;48.528;8.078;2023-01-06T09:42:16;0.37;;;0.37;;
10082;SDS011;5080;48.528;8.078;2023-01-06T09:45:05;0.50;;;0.50;;
10082;SDS011;5080;48.528;8.078;2023-01-06T09:47:39;0.40;;;0.40;;
10082;SDS011;5080;48.528;8.078;2023-01-06T09:50:13;0.30;;;0.30;;
10082;SDS011;5080;48.528;8.078;2023-01-06T09:52:46;0.30;;;0.30;;
10082;SDS011;5080;48.528;8.078;2023-01-06T09:55:18;0.30;;;0.30;;
10082;SDS011;5080;48.528;8.078;2023-01-06T09:57:49;0.30;;;0.30;;
10082;SDS011;5080;48.528;8.078;2023-01-06T10:00:24;0.40;;;0.40;;
10082;SDS011;5080;48.528;8.078;2023-01-06T10:02:57;0.40;;;0.40;;
10082;SDS011;5080;48.528;8.078;2023-01-06T10:05:25;0.40;;;0.40;;
10082;SDS011;5080;48.528;8.078;2023-01-06T10:08:00;0.23;;;0.23;;
10082;SDS011;5080;48.528;8.078;2023-01-06T10:10:33;0.40;;;0.40;;
10082;SDS011;5080;48.528;8.078;2023-01-06T10:13:11;0.40;;;0.40;;
10082;SDS011;5080;48.528;8.078;2023-01-06T10:15:50;0.20;;;0.20;;
10082;SDS011;5080;48.528;8.078;2023-01-06T10:18:29;0.37;;;0.37;;
10082;SDS011;5080;48.528;8.078;2023-01-06T10:21:05;0.40;;;0.40;;
10082;SDS011;5080;48.528;8.078;2023-01-06T10:26:41;0.30;;;0.30;;
10082;SDS011;5080;48.528;8.078;2023-01-06T10:29:11;0.40;;;0.40;;
10082;SDS011;5080;48.528;8.078;2023-01-06T10:31:40;0.30;;;0.30;;
10082;SDS011;5080;48.528;8.078;2023-01-06T10:34:14;0.20;;;0.20;;
10082;SDS011;5080;48.528;8.078;2023-01-06T10:36:45;0.37;;;0.37;;
10082;SDS011;5080;48.528;8.078;2023-01-06T10:39:17;0.20;;;0.20;;
10082;SDS011;5080;48.528;8.078;2023-01-06T10:41:48;0.10;;;0.10;;
10082;SDS011;5080;48.528;8.078;2023-01-06T10:44:41;0.23;;;0.23;;
10082;SDS011;5080;48.528;8.078;2023-01-06T10:47:09;0.20;;;0.20;;
10082;SDS011;5080;48.528;8.078;2023-01-06T10:49:46;0.20;;;0.20;;
10082;SDS011;5080;48.528;8.078;2023-01-06T10:52:13;0.10;;;0.10;;
10082;SDS011;5080;48.528;8.078;2023-01-06T10:54:40;0.10;;;0.10;;
10082;SDS011;5080;48.528;8.078;2023-01-06T10:57:10;0.40;;;0.40;;
10082;SDS011;5080;48.528;8.078;2023-01-06T11:02:34;0.30;;;0.30;;
10082;SDS011;5080;48.528;8.078;2023-01-06T11:05:02;0.20;;;0.20;;
10082;SDS011;5080;48.528;8.078;2023-01-06T11:07:30;0.10;;;0.10;;
10082;SDS011;5080;48.528;8.078;2023-01-06T11:09:57;0.20;;;0.20;;
10082;SDS011;5080;48.528;8.078;2023-01-06T11:12:25;0.30;;;0.30;;
10082;SDS011;5080;48.528;8.078;2023-01-06T11:14:56;0.30;;;0.30;;
10082;SDS011;5080;48.528;8.078;2023-01-06T11:17:25;0.37;;;0.37;;
10082;SDS011;5080;48.528;8.078;2023-01-06T11:20:06;0.20;;;0.20;;
10082;SDS011;5080;48.528;8.078;2023-01-06T11:22:35;0.20;;;0.20;;
10082;SDS011;5080;48.528;8.078;2023-01-06T11:25:11;0.30;;;0.30;;
10082;SDS011;5080;48.528;8.078;2023-01-06T11:30:41;0.20;;;0.20;;
10082;SDS011;5080;48.528;8.078;2023-01-06T11:33:15;0.57;;;0.37;;
10082;SDS011;5080;48.528;8.078;2023-01-06T11:35:44;0.40;;;0.40;;
10082;SDS011;5080;48.528;8.078;2023-01-06T11:38:12;0.30;;;0.30;;
10082;SDS011;5080;48.528;8.078;2023-01-06T11:40:41;0.30;;;0.30;;
10082;SDS011;5080;48.528;8.078;2023-01-06T11:43:11;0.27;;;0.27;;
10082;SDS011;5080;48.528;8.078;2023-01-06T11:45:41;0.40;;;0.40;;
10082;SDS011;5080;48.528;8.078;2023-01-06T11:48:12;0.40;;;0.40;;
10082;SDS011;5080;48.528;8.078;2023-01-06T11:50:50;0.30;;;0.30;;
10082;SDS011;5080;48.528;8.078;2023-01-06T11:53:18;0.50;;;0.50;;
10082;SDS011;5080;48.528;8.078;2023-01-06T11:55:57;0.40;;;0.40;;
10082;SDS011;5080;48.528;8.078;2023-01-06T11:58:42;0.23;;;0.23;;
10082;SDS011;5080;48.528;8.078;2023-01-06T12:01:19;0.30;;;0.30;;
10082;SDS011;5080;48.528;8.078;2023-01-06T12:03:58;0.50;;;0.50;;
10082;SDS011;5080;48.528;8.078;2023-01-06T12:06:32;0.43;;;0.43;;
10082;SDS011;5080;48.528;8.078;2023-01-06T12:09:03;0.50;;;0.50;;
10082;SDS011;5080;48.528;8.078;2023-01-06T12:11:38;0.30;;;0.30;;
10082;SDS011;5080;48.528;8.078;2023-01-06T12:14:11;0.50;;;0.50;;
10082;SDS011;5080;48.528;8.078;2023-01-06T12:16:42;0.40;;;0.40;;
10082;SDS011;5080;48.528;8.078;2023-01-06T12:19:19;0.37;;;0.37;;
10082;SDS011;5080;48.528;8.078;2023-01-06T12:21:52;0.50;;;0.50;;
10082;SDS011;5080;48.528;8.078;2023-01-06T12:24:20;0.40;;;0.40;;
10082;SDS011;5080;48.528;8.078;2023-01-06T12:26:48;0.32;;;0.32;;
10082;SDS011;5080;48.528;8.078;2023-01-06T12:29:18;0.30;;;0.30;;
10082;SDS011;5080;48.528;8.078;2023-01-06T12:31:50;0.40;;;0.40;;
10082;SDS011;5080;48.528;8.078;2023-01-06T12:34:25;0.40;;;0.40;;
10082;SDS011;5080;48.528;8.078;2023-01-06T12:36:58;0.30;;;0.30;;
10082;SDS011;5080;48.528;8.078;2023-01-06T12:39:34;0.30;;;0.30;;
10082;SDS011;5080;48.528;8.078;2023-01-06T12:42:09;0.73;;;0.40;;
10082;SDS011;5080;48.528;8.078;2023-01-06T12:44:46;0.30;;;0.30;;
10082;SDS011;5080;48.528;8.078;2023-01-06T12:47:18;0.40;;;0.40;;
10082;SDS011;5080;48.528;8.078;2023-01-06T12:49:50;0.80;;;0.80;;
10082;SDS011;5080;48.528;8.078;2023-01-06T12:52:23;0.67;;;0.67;;
10082;SDS011;5080;48.528;8.078;2023-01-06T12:54:57;0.57;;;0.57;;
10082;SDS011;5080;48.528;8.078;2023-01-06T12:57:30;0.27;;;0.27;;
10082;SDS011;5080;48.528;8.078;2023-01-06T13:00:10;0.30;;;0.30;;
10082;SDS011;5080;48.528;8.078;2023-01-06T13:02:56;0.70;;;0.70;;
10082;SDS011;5080;48.528;8.078;2023-01-06T13:05:42;0.30;;;0.30;;
10082;SDS011;5080;48.528;8.078;2023-01-06T13:08:23;0.40;;;0.40;;
10082;SDS011;5080;48.528;8.078;2023-01-06T13:11:00;0.40;;;0.40;;
10082;SDS011;5080;48.528;8.078;2023-01-06T13:13:39;0.30;;;0.30;;
10082;SDS011;5080;48.528;8.078;2023-01-06T13:16:16;0.40;;;0.40;;
10082;SDS011;5080;48.528;8.078;2023-01-06T13:18:50;0.40;;;0.40;;
10082;SDS011;5080;48.528;8.078;2023-01-06T13:21:25;0.30;;;0.30;;
10082;SDS011;5080;48.528;8.078;2023-01-06T13:23:57;0.40;;;0.40;;
10082;SDS011;5080;48.528;8.078;2023-01-06T13:29:44;0.30;;;0.30;;
10082;SDS011;5080;48.528;8.078;2023-01-06T13:32:29;0.23;;;0.23;;
10082;SDS011;5080;48.528;8.078;2023-01-06T13:35:15;0.30;;;0.30;;
10082;SDS011;5080;48.528;8.078;2023-01-06T13:37:55;0.55;;;0.55;;
10082;SDS011;5080;48.528;8.078;2023-01-06T13:40:31;0.40;;;0.40;;
10082;SDS011;5080;48.528;8.078;2023-01-06T13:43:03;0.40;;;0.40;;
10082;SDS011;5080;48.528;8.078;2023-01-06T13:45:33;0.40;;;0.40;;
10082;SDS011;5080;48.528;8.078;2023-01-06T13:48:02;0.50;;;0.50;;
10082;SDS011;5080;48.528;8.078;2023-01-06T13:50:33;0.60;;;0.60;;
10082;SDS011;5080;48.528;8.078;2023-01-06T13:53:00;0.50;;;0.50;;
10082;SDS011;5080;48.528;8.078;2023-01-06T13:55:28;0.57;;;0.57;;
10082;SDS011;5080;48.528;8.078;2023-01-06T13:58:32;0.60;;;0.60;;
10082;SDS011;5080;48.528;8.078;2023-01-06T14:01:04;0.50;;;0.50;;
10082;SDS011;5080;48.528;8.078;2023-01-06T14:03:33;0.37;;;0.37;;
10082;SDS011;5080;48.528;8.078;2023-01-06T14:06:00;0.53;;;0.53;;
10082;SDS011;5080;48.528;8.078;2023-01-06T14:08:29;0.50;;;0.50;;
10082;SDS011;5080;48.528;8.078;2023-01-06T14:11:03;0.40;;;0.40;;
10082;SDS011;5080;48.528;8.078;2023-01-06T14:13:49;0.50;;;0.50;;
10082;SDS011;5080;48.528;8.078;2023-01-06T14:16:18;0.30;;;0.30;;
10082;SDS011;5080;48.528;8.078;2023-01-06T14:18:45;0.30;;;0.30;;
10082;SDS011;5080;48.528;8.078;2023-01-06T14:21:23;0.30;;;0.30;;
10082;SDS011;5080;48.528;8.078;2023-01-06T14:23:57;0.30;;;0.30;;
10082;SDS011;5080;48.528;8.078;2023-01-06T14:35:46;0.20;;;0.20;;
10082;SDS011;5080;48.528;8.078;2023-01-06T14:38:20;0.40;;;0.40;;
10082;SDS011;5080;48.528;8.078;2023-01-06T14:40:52;0.47;;;0.47;;
10082;SDS011;5080;48.528;8.078;2023-01-06T14:43:27;0.45;;;0.45;;
10082;SDS011;5080;48.528;8.078;2023-01-06T14:46:01;0.37;;;0.37;;
10082;SDS011;5080;48.528;8.078;2023-01-06T14:48:34;0.43;;;0.43;;
10082;SDS011;5080;48.528;8.078;2023-01-06T14:51:08;0.50;;;0.50;;
10082;SDS011;5080;48.528;8.078;2023-01-06T14:53:42;0.40;;;0.40;;
10082;SDS011;5080;48.528;8.078;2023-01-06T14:56:14;0.60;;;0.60;;
10082;SDS011;5080;48.528;8.078;2023-01-06T14:58:43;0.40;;;0.40;;
10082;SDS011;5080;48.528;8.078;2023-01-06T15:01:19;0.50;;;0.50;;
10082;SDS011;5080;48.528;8.078;2023-01-06T15:03:52;0.40;;;0.40;;
10082;SDS011;5080;48.528;8.078;2023-01-06T15:06:22;0.40;;;0.40;;
10082;SDS011;5080;48.528;8.078;2023-01-06T15:08:49;0.50;;;0.50;;
10082;SDS011;5080;48.528;8.078;2023-01-06T15:11:25;0.60;;;0.60;;
10082;SDS011;5080;48.528;8.078;2023-01-06T15:13:53;0.60;;;0.60;;
10082;SDS011;5080;48.528;8.078;2023-01-06T15:16:23;0.50;;;0.50;;
10082;SDS011;5080;48.528;8.078;2023-01-06T15:18:57;0.77;;;0.40;;
10082;SDS011;5080;48.528;8.078;2023-01-06T15:21:25;0.40;;;0.40;;
10082;SDS011;5080;48.528;8.078;2023-01-06T15:23:53;0.30;;;0.30;;
10082;SDS011;5080;48.528;8.078;2023-01-06T15:26:22;0.40;;;0.40;;
10082;SDS011;5080;48.528;8.078;2023-01-06T15:28:54;0.23;;;0.23;;
10082;SDS011;5080;48.528;8.078;2023-01-06T15:31:25;0.40;;;0.40;;
10082;SDS011;5080;48.528;8.078;2023-01-06T15:33:53;0.40;;;0.40;;
10082;SDS011;5080;48.528;8.078;2023-01-06T15:36:21;0.50;;;0.50;;
10082;SDS011;5080;48.528;8.078;2023-01-06T15:38:49;0.30;;;0.30;;
10082;SDS011;5080;48.528;8.078;2023-01-06T15:41:17;0.50;;;0.50;;
10082;SDS011;5080;48.528;8.078;2023-01-06T15:44:01;0.50;;;0.50;;
10082;SDS011;5080;48.528;8.078;2023-01-06T15:46:36;0.40;;;0.40;;
10082;SDS011;5080;48.528;8.078;2023-01-06T15:49:05;0.40;;;0.40;;